createdAt,value
2019-06-20T00:00:30.427Z,53.90
2019-06-20T00:02:56.436Z,53.80
2019-06-20T00:05:22.672Z,53.80
2019-06-20T00:07:48.731Z,53.80
2019-06-20T00:10:14.697Z,53.80
2019-06-20T00:12:40.688Z,53.90
2019-06-20T00:15:06.756Z,53.90
2019-06-20T00:17:32.822Z,53.90
2019-06-20T00:19:58.865Z,53.90
2019-06-20T00:22:24.830Z,53.90
2019-06-20T00:24:50.783Z,53.90
2019-06-20T00:27:16.834Z,53.80
2019-06-20T00:29:42.801Z,53.90
2019-06-20T00:32:08.855Z,53.90
2019-06-20T00:34:34.825Z,53.90
2019-06-20T00:37:00.783Z,53.90
2019-06-20T00:39:26.753Z,54.10
2019-06-20T00:41:52.737Z,53.90
2019-06-20T00:44:18.771Z,53.90
2019-06-20T00:46:44.738Z,53.90
2019-06-20T00:49:10.683Z,53.90
2019-06-20T00:51:36.646Z,53.90
2019-06-20T00:54:02.770Z,53.90
2019-06-20T00:56:28.835Z,53.90
2019-06-20T00:58:54.802Z,53.90
2019-06-20T01:01:20.870Z,53.90
2019-06-20T01:03:46.926Z,53.90
2019-06-20T01:06:12.912Z,53.90
2019-06-20T01:08:38.934Z,54.00
2019-06-20T01:11:04.889Z,54.00
2019-06-20T01:13:34.047Z,54.00
2019-06-20T01:15:58.689Z,54.00
2019-06-20T01:18:24.646Z,54.00
2019-06-20T01:20:50.599Z,54.70
2019-06-20T01:23:16.569Z,54.10
2019-06-20T01:25:42.536Z,54.10
2019-06-20T01:28:08.469Z,54.10
2019-06-20T01:30:34.421Z,54.00
2019-06-20T01:33:00.379Z,54.10
2019-06-20T01:35:26.419Z,54.10
2019-06-20T01:37:52.367Z,54.10
2019-06-20T01:40:18.371Z,54.00
2019-06-20T01:42:44.397Z,54.00
2019-06-20T01:45:10.337Z,54.60
2019-06-20T01:47:36.270Z,54.00
2019-06-20T01:50:02.217Z,54.00
2019-06-20T01:52:28.153Z,54.10
2019-06-20T01:54:54.312Z,54.10
2019-06-20T01:57:20.811Z,54.10
2019-06-20T01:59:46.843Z,54.10
2019-06-20T02:02:12.783Z,54.00
2019-06-20T02:04:38.735Z,54.00
2019-06-20T02:07:04.670Z,54.00
2019-06-20T02:09:30.627Z,54.00
2019-06-20T02:11:56.602Z,54.00
2019-06-20T02:14:22.653Z,54.10
2019-06-20T02:16:48.584Z,54.00
2019-06-20T02:19:14.573Z,54.20
2019-06-20T02:21:40.635Z,54.00
2019-06-20T02:24:06.673Z,54.00
2019-06-20T02:26:32.789Z,54.00
2019-06-20T02:28:58.725Z,54.00
2019-06-20T02:31:24.691Z,54.00
2019-06-20T02:33:50.656Z,54.00
2019-06-20T02:36:16.694Z,54.00
2019-06-20T02:38:42.653Z,54.00
2019-06-20T02:41:08.617Z,54.00
2019-06-20T02:43:34.562Z,54.00
2019-06-20T02:46:00.531Z,54.10
2019-06-20T02:48:26.578Z,54.10
2019-06-20T02:50:52.553Z,54.00
2019-06-20T02:53:18.582Z,53.90
2019-06-20T02:55:44.564Z,53.90
2019-06-20T02:58:10.499Z,54.00
2019-06-20T03:00:36.456Z,54.00
2019-06-20T03:03:02.407Z,54.70
2019-06-20T03:05:28.353Z,54.10
2019-06-20T03:07:54.299Z,54.00
2019-06-20T03:10:20.284Z,54.00
2019-06-20T03:12:46.223Z,54.10
2019-06-20T03:15:12.535Z,54.00
2019-06-20T03:17:38.510Z,54.00
2019-06-20T03:20:04.557Z,54.10
2019-06-20T03:22:30.602Z,54.00
2019-06-20T03:24:56.570Z,54.10
2019-06-20T03:27:22.603Z,54.00
2019-06-20T03:29:48.590Z,54.10
2019-06-20T03:32:14.556Z,54.00
2019-06-20T03:34:40.634Z,54.10
2019-06-20T03:37:06.570Z,54.10
2019-06-20T03:39:32.548Z,54.20
2019-06-20T03:41:58.517Z,54.10
2019-06-20T03:44:24.811Z,54.10
2019-06-20T03:46:50.847Z,54.10
2019-06-20T03:49:16.929Z,54.20
2019-06-20T03:51:42.889Z,54.20
2019-06-20T03:54:08.854Z,54.10
2019-06-20T03:56:34.912Z,54.10
2019-06-20T03:59:00.855Z,54.20
2019-06-20T04:01:26.825Z,54.20
2019-06-20T04:03:52.790Z,54.10
2019-06-20T04:06:18.847Z,54.20
2019-06-20T04:08:44.811Z,54.70
2019-06-20T04:11:10.905Z,54.20
2019-06-20T04:13:36.955Z,54.20
2019-06-20T04:16:03.007Z,54.20
2019-06-20T04:18:28.977Z,54.10
2019-06-20T04:20:54.944Z,54.20
2019-06-20T04:23:20.991Z,54.20
2019-06-20T04:25:46.952Z,54.10
2019-06-20T04:28:12.914Z,54.20
2019-06-20T04:30:38.911Z,54.10
2019-06-20T04:33:04.849Z,54.20
2019-06-20T04:35:30.817Z,54.20
2019-06-20T04:37:56.781Z,54.20
2019-06-20T04:40:22.801Z,54.20
2019-06-20T04:42:48.753Z,54.10
2019-06-20T04:45:34.576Z,54.20
2019-06-20T04:47:53.752Z,54.30
2019-06-20T04:50:19.708Z,54.20
2019-06-20T04:52:45.668Z,54.20
2019-06-20T04:55:11.607Z,54.20
2019-06-20T04:57:37.567Z,54.20
2019-06-20T05:00:03.538Z,54.20
2019-06-20T05:02:35.630Z,54.20
2019-06-20T05:05:01.816Z,54.30
2019-06-20T05:07:28.162Z,54.20
2019-06-20T05:09:54.129Z,54.20
2019-06-20T05:12:20.505Z,54.20
2019-06-20T05:14:46.476Z,54.30
2019-06-20T05:17:12.437Z,54.20
2019-06-20T05:19:38.473Z,54.30
2019-06-20T05:22:04.437Z,54.20
2019-06-20T05:24:30.409Z,54.40
2019-06-20T05:26:56.492Z,54.20
2019-06-20T05:29:22.559Z,54.30
2019-06-20T05:31:48.510Z,54.30
2019-06-20T05:34:14.572Z,54.30
2019-06-20T05:36:40.633Z,54.20
2019-06-20T05:39:06.585Z,54.20
2019-06-20T05:41:32.535Z,54.20
2019-06-20T05:43:58.489Z,54.30
2019-06-20T05:46:24.467Z,54.30
2019-06-20T05:48:50.538Z,54.30
2019-06-20T05:51:16.491Z,54.20
2019-06-20T05:53:42.653Z,54.20
2019-06-20T05:56:08.797Z,54.30
2019-06-20T05:58:34.875Z,54.20
2019-06-20T06:01:00.829Z,54.30
2019-06-20T06:03:27.008Z,54.30
2019-06-20T06:05:53.146Z,54.20
2019-06-20T06:08:19.118Z,54.20
2019-06-20T06:10:45.165Z,54.30
2019-06-20T06:13:11.094Z,54.30
2019-06-20T06:15:37.821Z,54.40
2019-06-20T06:18:03.798Z,54.20
2019-06-20T06:20:29.836Z,54.20
2019-06-20T06:22:55.810Z,54.30
2019-06-20T06:25:21.845Z,54.30
2019-06-20T06:27:47.793Z,54.20
2019-06-20T06:30:13.737Z,54.30
2019-06-20T06:32:40.713Z,54.30
2019-06-20T06:35:06.836Z,54.20
2019-06-20T06:37:32.774Z,54.30
2019-06-20T06:39:58.743Z,54.20
2019-06-20T06:42:24.700Z,54.20
2019-06-20T06:44:50.643Z,54.60
2019-06-20T06:47:16.605Z,54.20
2019-06-20T06:49:42.543Z,54.20
2019-06-20T06:52:08.505Z,54.20
2019-06-20T06:54:34.462Z,54.40
2019-06-20T06:57:00.426Z,54.20
2019-06-20T06:59:26.362Z,54.30
2019-06-20T07:01:52.311Z,54.30
2019-06-20T07:04:18.277Z,54.20
2019-06-20T07:06:44.343Z,54.20
2019-06-20T07:09:10.403Z,54.20
2019-06-20T07:11:36.429Z,54.20
2019-06-20T07:14:02.532Z,54.30
2019-06-20T07:16:28.782Z,54.30
2019-06-20T07:18:54.868Z,54.30
2019-06-20T07:21:20.991Z,54.20
2019-06-20T07:23:47.030Z,54.20
2019-06-20T07:26:12.995Z,54.20
2019-06-20T07:28:39.065Z,54.20
2019-06-20T07:31:05.035Z,54.30
2019-06-20T07:33:30.978Z,54.30
2019-06-20T07:35:56.941Z,54.20
2019-06-20T07:38:22.882Z,54.20
2019-06-20T07:40:48.834Z,54.30
2019-06-20T07:43:14.804Z,54.20
2019-06-20T07:45:40.764Z,54.30
2019-06-20T07:48:06.797Z,54.30
2019-06-20T07:50:32.862Z,54.30
2019-06-20T07:53:02.338Z,54.30
2019-06-20T07:55:26.673Z,54.30
2019-06-20T07:57:52.617Z,54.20
2019-06-20T08:00:18.559Z,54.20
2019-06-20T08:02:44.531Z,54.30
2019-06-20T08:05:10.563Z,54.30
2019-06-20T08:07:36.606Z,54.30
2019-06-20T08:10:02.929Z,54.30
2019-06-20T08:12:28.992Z,54.20
2019-06-20T08:14:54.936Z,54.20
2019-06-20T08:17:34.922Z,54.20
2019-06-20T08:19:48.763Z,54.20
2019-06-20T08:22:14.727Z,54.30
2019-06-20T08:24:40.798Z,54.30
2019-06-20T08:27:06.960Z,54.20
2019-06-20T08:29:33.058Z,54.30
2019-06-20T08:31:59.779Z,54.40
2019-06-20T08:34:26.865Z,54.30
2019-06-20T08:36:52.921Z,54.20
2019-06-20T08:39:18.988Z,54.30
2019-06-20T08:41:45.039Z,54.40
2019-06-20T08:44:11.116Z,54.30
2019-06-20T08:46:37.176Z,54.30
2019-06-20T08:49:03.594Z,54.30
2019-06-20T08:51:29.800Z,54.30
2019-06-20T08:53:56.228Z,54.30
2019-06-20T08:56:23.533Z,54.40
2019-06-20T08:58:49.573Z,54.40
2019-06-20T09:01:15.512Z,54.30
2019-06-20T09:03:41.466Z,54.40
2019-06-20T09:06:07.510Z,54.40
2019-06-20T09:08:33.467Z,54.30
2019-06-20T09:10:59.562Z,54.40
2019-06-20T09:13:25.701Z,54.40
2019-06-20T09:15:52.214Z,54.30
2019-06-20T09:18:19.398Z,54.30
2019-06-20T09:20:45.350Z,54.40
2019-06-20T09:23:11.504Z,54.50
2019-06-20T09:25:37.584Z,54.30
2019-06-20T09:28:03.651Z,54.30
2019-06-20T09:30:29.707Z,54.30
2019-06-20T09:32:55.733Z,54.30
2019-06-20T09:35:21.721Z,54.30
2019-06-20T09:37:47.706Z,54.40
2019-06-20T09:40:13.750Z,54.40
2019-06-20T09:42:39.738Z,54.30
2019-06-20T09:45:05.804Z,54.40
2019-06-20T09:47:31.766Z,54.40
2019-06-20T09:49:58.953Z,54.30
2019-06-20T09:52:25.172Z,54.40
2019-06-20T09:54:51.729Z,54.30
2019-06-20T09:57:17.763Z,54.40
2019-06-20T09:59:56.225Z,54.40
2019-06-20T10:02:11.609Z,54.90
2019-06-20T10:04:37.668Z,54.30
2019-06-20T10:07:03.622Z,54.30
2019-06-20T10:09:29.681Z,54.30
2019-06-20T10:11:56.113Z,54.40
2019-06-20T10:14:22.288Z,54.30
2019-06-20T10:16:50.917Z,55.00
2019-06-20T10:19:16.204Z,54.30
2019-06-20T10:21:42.161Z,54.40
2019-06-20T10:24:08.225Z,54.30
2019-06-20T10:26:37.532Z,54.40
2019-06-20T10:29:02.077Z,54.30
2019-06-20T10:31:28.013Z,54.40
2019-06-20T10:33:56.919Z,54.30
2019-06-20T10:36:23.020Z,54.40
2019-06-20T10:38:50.314Z,54.40
2019-06-20T10:41:16.505Z,54.30
2019-06-20T10:43:43.026Z,54.30
2019-06-20T10:46:10.241Z,54.30
2019-06-20T10:48:36.209Z,54.30
2019-06-20T10:51:20.860Z,54.30
2019-06-20T10:53:47.318Z,54.80
2019-06-20T10:56:13.281Z,54.30
2019-06-20T10:58:41.496Z,54.30
2019-06-20T11:01:07.239Z,54.20
2019-06-20T11:03:33.200Z,54.20
2019-06-20T11:05:59.629Z,54.20
2019-06-20T11:08:25.594Z,54.20
2019-06-20T11:10:51.562Z,54.20
2019-06-20T11:13:17.532Z,54.30
2019-06-20T11:15:44.070Z,54.20
2019-06-20T11:18:10.173Z,54.20
2019-06-20T11:20:36.133Z,54.20
2019-06-20T11:23:02.085Z,54.20
2019-06-20T11:25:28.056Z,54.20
2019-06-20T11:27:54.008Z,54.40
2019-06-20T11:30:19.985Z,54.20
2019-06-20T11:32:45.937Z,54.20
2019-06-20T11:35:11.917Z,54.10
2019-06-20T11:37:37.899Z,54.10
2019-06-20T11:40:03.959Z,54.10
2019-06-20T11:42:29.999Z,54.20
2019-06-20T11:44:56.153Z,54.20
2019-06-20T11:47:22.198Z,54.30
2019-06-20T11:49:48.198Z,54.40
2019-06-20T11:52:14.237Z,54.30
2019-06-20T11:54:40.327Z,54.20
2019-06-20T11:57:06.503Z,54.20
2019-06-20T11:59:32.456Z,54.20
2019-06-20T12:01:58.389Z,54.20
2019-06-20T12:04:24.359Z,54.20
2019-06-20T12:06:50.332Z,54.10
2019-06-20T12:09:16.386Z,54.20
2019-06-20T12:11:42.460Z,54.30
2019-06-20T12:14:08.498Z,54.30
2019-06-20T12:16:34.476Z,54.30
2019-06-20T12:19:00.433Z,54.30
2019-06-20T12:21:26.413Z,54.40
2019-06-20T12:23:52.492Z,54.40
2019-06-20T12:26:18.452Z,54.30
2019-06-20T12:28:44.761Z,54.30
2019-06-20T12:31:19.361Z,54.30
2019-06-20T12:33:39.597Z,54.40
2019-06-20T12:36:06.674Z,54.40
2019-06-20T12:38:32.616Z,54.30
2019-06-20T12:40:58.599Z,54.40
2019-06-20T12:43:24.632Z,54.30
2019-06-20T12:45:51.702Z,54.40
2019-06-20T12:48:17.862Z,54.30
2019-06-20T12:50:45.017Z,54.20
2019-06-20T12:53:11.208Z,54.30
2019-06-20T12:55:37.277Z,54.30
2019-06-20T12:58:04.530Z,54.40
2019-06-20T13:00:30.495Z,54.40
2019-06-20T13:02:56.453Z,54.30
2019-06-20T13:05:22.500Z,54.30
2019-06-20T13:07:48.499Z,54.40
2019-06-20T13:10:14.466Z,54.20
2019-06-20T13:12:41.379Z,54.30
2019-06-20T13:15:08.394Z,54.30
2019-06-20T13:17:34.469Z,54.20
2019-06-20T13:20:00.435Z,54.70
2019-06-20T13:22:26.391Z,54.40
2019-06-20T13:24:52.376Z,54.30
2019-06-20T13:27:18.412Z,54.30
2019-06-20T13:29:45.276Z,54.30
2019-06-20T13:32:11.320Z,54.30
2019-06-20T13:34:38.042Z,54.20
2019-06-20T13:37:05.525Z,54.20
2019-06-20T13:39:31.656Z,54.30
2019-06-20T13:41:57.703Z,54.30
2019-06-20T13:44:24.049Z,54.30
2019-06-20T13:46:50.006Z,54.30
2019-06-20T13:49:15.963Z,54.30
2019-06-20T13:51:42.009Z,54.30
2019-06-20T13:54:09.291Z,54.40
2019-06-20T13:56:35.262Z,54.30
2019-06-20T13:59:01.235Z,54.30
2019-06-20T14:01:27.273Z,54.30
2019-06-20T14:03:53.235Z,54.30
2019-06-20T14:06:19.194Z,54.30
2019-06-20T14:08:46.035Z,54.30
2019-06-20T14:11:12.407Z,54.30
2019-06-20T14:13:38.378Z,54.30
2019-06-20T14:16:04.434Z,54.30
2019-06-20T14:18:30.373Z,54.40
2019-06-20T14:20:56.381Z,54.30
2019-06-20T14:23:22.428Z,54.30
2019-06-20T14:25:48.769Z,54.40
2019-06-20T14:28:14.869Z,54.30
2019-06-20T14:30:40.875Z,54.20
2019-06-20T14:33:06.927Z,54.40
2019-06-20T14:35:32.938Z,55.00
2019-06-20T14:37:58.978Z,54.30
2019-06-20T14:40:24.966Z,54.40
2019-06-20T14:42:52.183Z,54.40
2019-06-20T14:45:18.491Z,54.40
2019-06-20T14:47:44.495Z,54.60
2019-06-20T14:50:10.535Z,54.50
2019-06-20T14:52:36.489Z,54.60
2019-06-20T14:55:02.469Z,54.50
2019-06-20T14:57:28.431Z,54.60
2019-06-20T14:59:54.444Z,54.50
2019-06-20T15:02:20.521Z,54.60
2019-06-20T15:04:47.605Z,54.50
2019-06-20T15:07:13.984Z,54.50
2019-06-20T15:09:40.031Z,54.50
2019-06-20T15:12:06.089Z,54.50
2019-06-20T15:14:32.159Z,54.60
2019-06-20T15:16:59.074Z,54.70
2019-06-20T15:19:25.172Z,54.60
2019-06-20T15:21:52.089Z,54.50
2019-06-20T15:24:18.271Z,54.50
2019-06-20T15:26:45.822Z,54.60
2019-06-20T15:29:12.119Z,54.50
2019-06-20T15:31:38.158Z,54.60
2019-06-20T15:34:04.239Z,54.60
2019-06-20T15:36:30.305Z,54.50
2019-06-20T15:38:57.359Z,54.50
2019-06-20T15:41:23.416Z,54.50
2019-06-20T15:43:49.870Z,54.60
2019-06-20T15:46:16.037Z,54.50
2019-06-20T15:48:42.010Z,54.60
2019-06-20T15:51:08.043Z,54.60
2019-06-20T15:53:34.021Z,54.50
2019-06-20T15:56:00.130Z,54.70
2019-06-20T15:58:26.117Z,54.60
2019-06-20T16:00:52.160Z,54.60
2019-06-20T16:03:18.473Z,54.60
2019-06-20T16:05:44.518Z,54.60
2019-06-20T16:08:10.508Z,54.60
2019-06-20T16:10:36.553Z,54.60
2019-06-20T16:13:02.605Z,54.50
2019-06-20T16:15:28.607Z,54.60
2019-06-20T16:17:54.754Z,54.50
2019-06-20T16:20:20.777Z,54.50
2019-06-20T16:22:46.746Z,54.50
2019-06-20T16:25:12.800Z,54.60
2019-06-20T16:27:38.762Z,54.60
2019-06-20T16:30:04.784Z,54.50
2019-06-20T16:32:30.811Z,54.50
2019-06-20T16:34:56.855Z,54.50
2019-06-20T16:37:22.917Z,54.40
2019-06-20T16:39:49.016Z,54.50
2019-06-20T16:42:15.065Z,54.60
2019-06-20T16:44:41.145Z,54.60
2019-06-20T16:47:07.220Z,54.50
2019-06-20T16:49:33.305Z,54.60
2019-06-20T16:51:59.337Z,54.50
2019-06-20T16:54:25.862Z,54.50
2019-06-20T16:56:51.900Z,54.60
2019-06-20T16:59:17.918Z,54.50
2019-06-20T17:01:43.865Z,54.60
2019-06-20T17:04:09.854Z,54.60
2019-06-20T17:06:35.926Z,54.60
2019-06-20T17:09:02.105Z,54.60
2019-06-20T17:11:28.149Z,54.60
2019-06-20T17:13:54.116Z,55.20
2019-06-20T17:16:20.093Z,54.50
2019-06-20T17:18:46.058Z,54.60
2019-06-20T17:21:12.030Z,54.60
2019-06-20T17:23:38.009Z,54.60
2019-06-20T17:26:03.995Z,54.50
2019-06-20T17:28:30.045Z,54.60
2019-06-20T17:30:56.027Z,54.60
2019-06-20T17:33:22.072Z,54.60
2019-06-20T17:35:48.036Z,54.50
2019-06-20T17:38:13.995Z,54.60
2019-06-20T17:40:40.076Z,54.60
2019-06-20T17:43:06.140Z,54.60
2019-06-20T17:45:32.112Z,54.60
2019-06-20T17:47:58.067Z,54.60
2019-06-20T17:50:25.960Z,54.60
2019-06-20T17:52:51.932Z,54.60
2019-06-20T17:55:17.998Z,54.60
2019-06-20T17:57:44.038Z,54.60
2019-06-20T18:00:09.999Z,54.50
2019-06-20T18:02:36.078Z,54.60
2019-06-20T18:05:02.214Z,54.50
2019-06-20T18:07:28.306Z,55.20
2019-06-20T18:09:54.330Z,54.60
2019-06-20T18:12:20.304Z,54.50
2019-06-20T18:14:46.277Z,54.50
2019-06-20T18:17:12.232Z,54.60
2019-06-20T18:19:38.205Z,54.50
2019-06-20T18:22:04.302Z,54.60
2019-06-20T18:24:30.341Z,54.60
2019-06-20T18:26:56.323Z,54.60
2019-06-20T18:29:22.370Z,54.50
2019-06-20T18:31:48.437Z,54.50
2019-06-20T18:34:29.099Z,54.60
2019-06-20T18:36:43.510Z,54.50
2019-06-20T18:39:09.624Z,54.60
2019-06-20T18:41:35.600Z,54.60
2019-06-20T18:44:01.575Z,54.50
2019-06-20T18:46:27.539Z,55.30
2019-06-20T18:48:53.598Z,54.60
2019-06-20T18:51:19.557Z,54.60
2019-06-20T18:53:45.519Z,54.60
2019-06-20T18:56:12.788Z,54.60
2019-06-20T18:58:38.837Z,54.50
2019-06-20T19:01:04.783Z,54.50
2019-06-20T19:03:30.748Z,54.60
2019-06-20T19:05:56.744Z,54.70
2019-06-20T19:08:22.801Z,54.60
2019-06-20T19:10:48.772Z,54.60
2019-06-20T19:13:14.718Z,54.60
2019-06-20T19:15:40.696Z,54.60
2019-06-20T19:18:06.753Z,54.60
2019-06-20T19:20:32.814Z,54.50
2019-06-20T19:22:58.775Z,54.60
2019-06-20T19:25:24.737Z,54.60
2019-06-20T19:27:50.728Z,54.60
2019-06-20T19:30:16.699Z,54.60
2019-06-20T19:32:42.779Z,54.60
2019-06-20T19:35:10.361Z,54.60
2019-06-20T19:37:36.653Z,54.60
2019-06-20T19:40:02.928Z,54.50
2019-06-20T19:42:28.965Z,54.60
2019-06-20T19:44:54.951Z,54.60
2019-06-20T19:47:21.000Z,54.70
2019-06-20T19:49:46.976Z,54.70
2019-06-20T19:52:12.952Z,54.60
2019-06-20T19:54:39.070Z,54.60
2019-06-20T19:57:05.121Z,54.60
2019-06-20T19:59:31.247Z,54.60
2019-06-20T20:01:57.231Z,54.60
2019-06-20T20:04:23.345Z,54.60
2019-06-20T20:06:49.412Z,54.60
2019-06-20T20:09:15.363Z,54.70
2019-06-20T20:11:41.532Z,54.60
2019-06-20T20:14:07.703Z,54.60
2019-06-20T20:16:33.661Z,54.60
2019-06-20T20:18:59.720Z,54.60
2019-06-20T20:21:25.751Z,54.60
2019-06-20T20:23:51.712Z,54.60
2019-06-20T20:26:17.661Z,54.70
2019-06-20T20:28:43.609Z,54.70
2019-06-20T20:31:09.589Z,54.60
2019-06-20T20:33:35.597Z,54.60
2019-06-20T20:36:02.113Z,54.60
2019-06-20T20:38:28.232Z,54.60
2019-06-20T20:40:54.182Z,54.70
2019-06-20T20:43:20.177Z,54.60
2019-06-20T20:45:46.258Z,54.60
2019-06-20T20:48:12.534Z,54.60
2019-06-20T20:50:38.508Z,54.70
2019-06-20T20:53:04.483Z,54.70
2019-06-20T20:55:30.444Z,54.60
2019-06-20T20:57:56.408Z,54.60
2019-06-20T21:00:22.392Z,54.70
2019-06-20T21:02:48.470Z,54.70
2019-06-20T21:05:14.430Z,54.70
2019-06-20T21:07:40.488Z,54.70
2019-06-20T21:10:06.449Z,54.70
2019-06-20T21:12:32.497Z,54.60
2019-06-20T21:14:58.450Z,55.30
2019-06-20T21:17:24.426Z,54.60
2019-06-20T21:19:50.484Z,54.60
2019-06-20T21:22:16.512Z,54.60
2019-06-20T21:24:42.476Z,54.80
2019-06-20T21:27:08.432Z,54.70
2019-06-20T21:29:34.394Z,54.60
2019-06-20T21:32:00.346Z,54.70
2019-06-20T21:34:26.383Z,54.80
2019-06-20T21:36:52.358Z,54.80
2019-06-20T21:39:18.403Z,54.70
2019-06-20T21:41:44.460Z,54.70
2019-06-20T21:44:10.413Z,54.80
2019-06-20T21:46:36.377Z,54.70
2019-06-20T21:49:02.317Z,54.60
2019-06-20T21:51:28.406Z,54.70
2019-06-20T21:53:54.484Z,54.70
2019-06-20T21:56:20.520Z,54.60
2019-06-20T21:58:46.585Z,54.70
2019-06-20T22:01:12.757Z,54.70
2019-06-20T22:03:38.744Z,54.80
2019-06-20T22:06:04.842Z,54.80
2019-06-20T22:08:30.879Z,54.70
2019-06-20T22:10:57.044Z,54.80
2019-06-20T22:13:23.045Z,54.80
2019-06-20T22:15:49.009Z,54.80
2019-06-20T22:18:15.091Z,54.80
2019-06-20T22:20:43.740Z,54.80
2019-06-20T22:23:09.720Z,54.80
2019-06-20T22:25:35.698Z,54.90
2019-06-20T22:28:01.654Z,55.40
2019-06-20T22:30:27.622Z,54.80
2019-06-20T22:32:53.689Z,54.80
2019-06-20T22:35:19.651Z,54.80
2019-06-20T22:37:45.600Z,54.80
2019-06-20T22:40:11.565Z,54.80
2019-06-20T22:42:37.623Z,54.80
2019-06-20T22:45:06.867Z,54.80
2019-06-20T22:47:31.579Z,54.80
2019-06-20T22:49:57.554Z,54.80
2019-06-20T22:52:23.635Z,54.80
2019-06-20T22:54:49.680Z,54.80
2019-06-20T22:57:15.628Z,54.80
2019-06-20T22:59:41.603Z,54.80
2019-06-20T23:02:07.542Z,54.80
2019-06-20T23:04:33.535Z,54.80
2019-06-20T23:06:59.596Z,55.40
2019-06-20T23:09:27.435Z,54.80
2019-06-20T23:11:53.470Z,54.80
2019-06-20T23:14:19.511Z,54.80
2019-06-20T23:16:45.446Z,54.80
2019-06-20T23:19:11.393Z,54.80
2019-06-20T23:21:37.378Z,54.80
2019-06-20T23:24:03.421Z,54.80
2019-06-20T23:26:29.690Z,54.80
2019-06-20T23:29:03.685Z,54.80
2019-06-20T23:31:29.649Z,54.80
2019-06-20T23:33:55.592Z,54.80
2019-06-20T23:36:21.533Z,54.70
2019-06-20T23:38:47.487Z,54.70
2019-06-20T23:41:13.453Z,54.80
2019-06-20T23:43:39.411Z,54.80
2019-06-20T23:46:05.355Z,54.80
2019-06-20T23:48:31.328Z,54.80
2019-06-20T23:50:57.395Z,54.80
2019-06-20T23:53:25.247Z,54.70
2019-06-20T23:55:51.211Z,54.80
2019-06-20T23:58:17.192Z,54.80
